Time;durP1;ratioP1;P1;durP2;ratioP2;P2;SDS_P1;SDS_P2;PMS_P1;PMS_P2;Temp;Humidity;BMP_temperature;BMP_pressure;BME280_temperature;BME280_humidity;BME280_pressure;Samples;Min_cycle;Max_cycle;Signal;HPM_P1;HPM_P2
2022/07/14 00:02:52;;;;;;;8.93;1.98;;;;;;;21.75;61.27;100594.42;5068006;57;1136929;-68
2022/07/14 00:07:57;;;;;;;3.15;2.00;;;;;;;21.63;61.53;100590.56;5068161;57;1137083;-69
2022/07/14 00:13:03;;;;;;;2.65;2.45;;;;;;;21.58;61.96;100587.59;5115250;57;1136945;-68
2022/07/14 00:18:09;;;;;;;2.25;1.92;;;;;;;21.59;62.11;100596.83;5160255;57;1137071;-68
2022/07/14 00:23:16;;;;;;;2.20;2.00;;;;;;;21.63;62.30;100602.67;5160272;57;1134898;-68
2022/07/14 00:28:22;;;;;;;4.65;1.85;;;;;;;21.61;62.56;100594.78;5160334;57;1134931;-68
2022/07/14 00:33:28;;;;;;;3.08;2.22;;;;;;;21.61;62.72;100593.95;5160277;57;1138971;-69
2022/07/14 00:38:35;;;;;;;2.07;1.97;;;;;;;21.51;62.74;100595.60;5226298;56;1139012;-68
2022/07/14 00:43:41;;;;;;;4.63;2.40;;;;;;;21.39;63.08;100584.45;5160500;57;1139059;-68
2022/07/14 00:48:47;;;;;;;5.50;2.10;;;;;;;21.35;63.31;100590.42;5176893;56;1139124;-68
2022/07/14 00:53:58;;;;;;;4.55;2.17;;;;;;;21.35;63.59;100591.77;5166571;56;1139034;-68
2022/07/14 00:59:04;;;;;;;4.28;1.90;;;;;;;21.29;63.72;100598.72;5237465;56;1139063;-68
2022/07/14 01:04:09;;;;;;;2.45;2.00;;;;;;;21.27;64.19;100600.76;5237566;56;1138996;-68
2022/07/14 01:09:15;;;;;;;2.95;2.02;;;;;;;21.21;64.35;100602.03;5204636;56;1139113;-69
2022/07/14 01:14:20;;;;;;;3.58;2.52;;;;;;;20.95;64.03;100604.61;5225021;56;1139135;-68
2022/07/14 01:19:26;;;;;;;2.95;2.12;;;;;;;20.83;64.81;100601.22;5216852;56;1139034;-68
2022/07/14 01:24:34;;;;;;;4.45;2.20;;;;;;;20.75;65.16;100605.34;5216829;56;1139140;-68
2022/07/14 01:29:40;;;;;;;2.62;2.42;;;;;;;20.63;65.46;100605.77;5190802;56;1139056;-67
2022/07/14 01:34:47;;;;;;;2.08;1.95;;;;;;;20.49;65.55;100601.70;5212061;56;1139070;-68
2022/07/14 01:39:53;;;;;;;5.83;2.20;;;;;;;20.40;66.02;100596.92;5131191;57;1139075;-68
2022/07/14 01:45:00;;;;;;;2.92;2.50;;;;;;;20.34;66.31;100606.48;5131127;57;1139147;-68
2022/07/14 01:50:08;;;;;;;2.12;1.98;;;;;;;20.23;66.55;100605.58;5147916;57;1139020;-68
2022/07/14 01:55:15;;;;;;;2.50;2.10;;;;;;;20.17;66.93;100610.81;5174367;56;1139114;-68
2022/07/14 02:00:22;;;;;;;11.43;2.45;;;;;;;20.20;67.48;100612.64;5216695;56;1139028;-68
2022/07/14 02:05:30;;;;;;;4.85;2.20;;;;;;;20.23;67.55;100607.42;5216679;56;1141085;-68
2022/07/14 02:16:00;;;;;;;2.00;1.90;;;;;;;20.15;67.59;100611.02;5239231;56;1139287;-67
2022/07/14 02:21:06;;;;;;;2.92;1.95;;;;;;;20.06;67.61;100610.73;5246718;56;1139300;-68
2022/07/14 02:26:13;;;;;;;1.72;1.70;;;;;;;19.94;67.74;100604.11;5246788;56;1139144;-68
2022/07/14 02:31:20;;;;;;;2.47;1.90;;;;;;;19.84;68.12;100601.66;5238449;56;1138972;-67
2022/07/14 02:36:27;;;;;;;6.22;1.90;;;;;;;19.69;68.45;100598.56;5193534;56;1139118;-68
2022/07/14 02:41:33;;;;;;;2.72;1.40;;;;;;;19.54;68.75;100606.52;5246570;56;1139038;-68
2022/07/14 02:46:39;;;;;;;2.70;1.82;;;;;;;19.46;69.40;100611.37;5247183;56;1139071;-67
2022/07/14 02:51:45;;;;;;;2.67;1.60;;;;;;;19.29;69.88;100616.45;5247282;56;1138969;-68
2022/07/14 02:56:51;;;;;;;1.92;1.68;;;;;;;19.21;70.20;100623.20;5182738;56;1139152;-68
2022/07/14 03:01:57;;;;;;;2.95;1.62;;;;;;;19.13;70.59;100625.39;5160539;57;1139217;-68
2022/07/14 03:07:04;;;;;;;6.08;1.92;;;;;;;19.18;70.95;100634.27;5160675;57;1139054;-67
2022/07/14 03:12:10;;;;;;;1.98;1.80;;;;;;;19.21;71.37;100633.42;5160564;57;1139062;-68
2022/07/14 03:17:18;;;;;;;9.68;2.27;;;;;;;19.27;71.37;100638.08;4994013;59;1137167;-67
2022/07/14 03:22:24;;;;;;;7.58;2.20;;;;;;;19.16;71.26;100651.86;5014842;58;1136981;-68
2022/07/14 03:27:31;;;;;;;10.82;2.27;;;;;;;18.92;71.45;100652.76;5033720;58;1137046;-68
2022/07/14 03:32:38;;;;;;;5.62;2.30;;;;;;;18.67;71.83;100652.92;5026607;57;1139061;-68
2022/07/14 03:37:45;;;;;;;3.62;1.90;;;;;;;18.54;72.55;100663.61;5055988;57;1136960;-68
2022/07/14 03:42:51;;;;;;;6.50;2.45;;;;;;;18.51;73.11;100664.44;5088691;57;1136994;-68
2022/07/14 03:47:58;;;;;;;2.80;2.30;;;;;;;18.49;73.64;100671.80;5036669;58;1136953;-67
2022/07/14 03:53:05;;;;;;;8.25;2.90;;;;;;;18.42;74.30;100677.00;5087449;57;1136926;-67
2022/07/14 03:58:11;;;;;;;8.10;2.33;;;;;;;18.24;76.10;100684.33;5046771;58;1137014;-67
2022/07/14 04:03:16;;;;;;;2.77;2.15;;;;;;;18.08;76.92;100686.97;5031752;58;1137078;-67
2022/07/14 04:08:22;;;;;;;8.88;2.85;;;;;;;18.03;77.52;100694.64;5077819;57;1136985;-67
2022/07/14 04:13:32;;;;;;;3.22;2.00;;;;;;;18.00;79.01;100697.67;5094560;57;1136983;-68
2022/07/14 04:18:38;;;;;;;3.72;2.70;;;;;;;18.02;79.00;100696.52;5075296;58;1137002;-68
2022/07/14 04:23:44;;;;;;;2.60;2.40;;;;;;;17.99;79.70;100698.66;5075419;57;1137115;-68
2022/07/14 04:28:50;;;;;;;7.00;2.40;;;;;;;18.04;80.93;100693.14;5075456;58;1136865;-68
2022/07/14 04:33:56;;;;;;;4.95;3.25;;;;;;;18.08;80.45;100693.16;5075488;58;1137181;-67
2022/07/14 04:39:02;;;;;;;4.30;2.40;;;;;;;18.09;81.24;100694.84;5075344;58;1137073;-67
2022/07/14 04:44:09;;;;;;;6.87;2.40;;;;;;;18.11;81.35;100695.52;5076373;57;1134929;-68
2022/07/14 04:54:42;;;;;;;4.23;2.43;;;;;;;18.05;83.41;100703.35;5084566;57;1138981;-68
2022/07/14 04:59:50;;;;;;;7.23;3.03;;;;;;;18.07;84.43;100694.16;5146312;57;1138895;-69
2022/07/14 05:04:58;;;;;;;6.25;3.10;;;;;;;18.11;83.93;100689.33;5137829;57;1139268;-67
2022/07/14 05:10:07;;;;;;;4.37;2.20;;;;;;;18.16;83.33;100693.20;5102977;57;1139253;-67
2022/07/14 05:15:14;;;;;;;9.27;2.27;;;;;;;18.34;83.29;100689.53;5060141;57;1138906;-68
2022/07/14 05:20:22;;;;;;;4.72;1.90;;;;;;;18.48;82.29;100696.44;5085809;57;1139006;-68
2022/07/14 05:25:28;;;;;;;7.00;2.50;;;;;;;18.50;81.65;100698.42;5042151;57;1139084;-68
2022/07/14 05:30:34;;;;;;;4.10;2.70;;;;;;;18.54;81.11;100698.44;5087594;57;1139065;-68
2022/07/14 05:35:41;;;;;;;5.87;2.50;;;;;;;18.59;80.48;100692.62;5138986;57;1139361;-67
2022/07/14 05:40:46;;;;;;;9.43;2.10;;;;;;;18.58;80.15;100693.12;5123362;57;1139081;-67
2022/07/14 05:45:53;;;;;;;7.78;2.35;;;;;;;18.67;80.25;100695.29;5112588;57;1139144;-68
2022/07/14 05:51:11;;;;;;;9.28;2.00;;;;;;;18.79;79.91;100695.82;5159015;57;1139098;-68
2022/07/14 05:56:19;;;;;;;9.38;2.67;;;;;;;18.85;80.31;100699.98;5111197;57;1139054;-68
2022/07/14 06:01:25;;;;;;;9.30;2.00;;;;;;;19.01;78.61;100693.78;4993904;59;1139097;-67
2022/07/14 06:06:32;;;;;;;10.28;2.67;;;;;;;18.95;77.95;100696.62;4993789;59;1139240;-67
2022/07/14 06:11:40;;;;;;;9.53;2.50;;;;;;;18.93;77.42;100702.68;4989598;59;1141138;-67
2022/07/14 06:16:45;;;;;;;14.85;2.70;;;;;;;19.06;77.49;100699.48;4991481;59;1139095;-69
2022/07/14 06:21:53;;;;;;;13.25;2.20;;;;;;;19.26;76.95;100704.79;4977969;59;1141164;-68
2022/07/14 06:27:01;;;;;;;9.25;2.80;;;;;;;19.30;76.56;100714.17;4982177;59;1141104;-68
2022/07/14 06:32:09;;;;;;;7.22;2.30;;;;;;;19.26;75.40;100722.72;4978151;59;1139224;-67
2022/07/14 06:37:16;;;;;;;9.85;2.02;;;;;;;19.07;75.50;100725.28;4982054;59;1139358;-68
2022/07/14 06:42:22;;;;;;;5.45;1.82;;;;;;;19.13;74.12;100719.73;4913441;59;1139238;-68
2022/07/14 06:47:32;;;;;;;10.38;2.40;;;;;;;19.21;73.59;100721.91;4914243;59;1139112;-68
2022/07/14 06:52:38;;;;;;;6.95;2.65;;;;;;;19.28;74.21;100723.39;4977448;58;1141197;-68
2022/07/14 06:57:44;;;;;;;13.62;2.95;;;;;;;19.54;73.35;100730.77;4967261;59;1139184;-68
2022/07/14 07:02:50;;;;;;;9.55;2.47;;;;;;;19.61;72.23;100733.58;5062819;58;1141163;-68
2022/07/14 07:08:00;;;;;;;10.10;2.60;;;;;;;19.65;71.12;100728.21;5086589;57;1139058;-68
2022/07/14 07:13:06;;;;;;;8.05;2.10;;;;;;;19.78;71.83;100720.45;5116333;57;1139131;-68
2022/07/14 07:18:12;;;;;;;4.20;2.10;;;;;;;19.96;68.83;100722.89;5106502;56;1137164;-68
2022/07/14 07:23:17;;;;;;;4.85;2.20;;;;;;;20.11;69.36;100728.36;5246492;56;1137152;-67
2022/07/14 07:28:29;;;;;;;14.93;2.12;;;;;;;20.17;69.24;100730.32;5200865;56;1137210;-68
2022/07/14 07:33:39;;;;;;;7.25;2.00;;;;;;;20.24;69.02;100723.25;5198388;56;1139156;-68
2022/07/14 07:38:45;;;;;;;5.92;2.02;;;;;;;20.10;67.04;100731.55;5144897;57;1137028;-67
2022/07/14 07:43:52;;;;;;;7.92;2.52;;;;;;;20.15;65.95;100723.81;5140709;57;1136995;-69
2022/07/14 07:48:58;;;;;;;7.75;2.33;;;;;;;20.38;65.95;100720.34;5143267;57;1137046;-68
2022/07/14 07:54:05;;;;;;;11.93;2.42;;;;;;;20.47;66.09;100712.04;5222631;56;1136953;-68
2022/07/14 07:59:12;;;;;;;3.77;1.50;;;;;;;20.62;65.46;100698.16;5079715;57;1139055;-68
2022/07/14 08:04:18;;;;;;;9.60;3.35;;;;;;;20.70;62.74;100706.67;5066738;57;1136988;-68
2022/07/14 08:09:23;;;;;;;6.35;1.60;;;;;;;20.75;61.16;100706.98;5208545;56;1136968;-67
2022/07/14 08:19:52;;;;;;;4.72;1.50;;;;;;;20.83;59.99;100710.09;4980554;59;1134940;-68
2022/07/14 08:24:58;;;;;;;4.20;2.20;;;;;;;20.81;57.91;100713.47;4980722;59;1135076;-69
2022/07/14 08:30:06;;;;;;;4.22;1.50;;;;;;;20.92;59.54;100719.78;5002847;58;1139313;-69
2022/07/14 08:35:15;;;;;;;4.50;2.13;;;;;;;21.05;56.71;100719.49;5065918;56;1139025;-68
2022/07/14 08:40:25;;;;;;;9.35;2.62;;;;;;;21.24;56.22;100726.21;5148477;56;1139039;-68
2022/07/14 08:45:35;;;;;;;5.70;2.00;;;;;;;21.41;56.68;100721.00;5163751;56;1138933;-67
2022/07/14 08:50:41;;;;;;;5.28;2.60;;;;;;;21.61;57.08;100704.30;5173181;56;1139264;-67
2022/07/14 08:55:47;;;;;;;7.33;1.50;;;;;;;21.92;57.20;100698.20;5233278;56;1139205;-68
2022/07/14 09:00:53;;;;;;;5.80;1.60;;;;;;;22.00;54.79;100694.58;5249188;56;1139225;-69
2022/07/14 09:05:59;;;;;;;8.45;2.12;;;;;;;21.88;53.15;100691.51;5189320;56;1138960;-68
2022/07/14 09:11:05;;;;;;;5.58;1.60;;;;;;;21.81;53.20;100688.42;5162630;56;1139459;-67
2022/07/14 09:16:23;;;;;;;13.08;2.00;;;;;;;21.82;54.51;100686.89;5169961;56;1139300;-69
2022/07/14 09:21:29;;;;;;;11.55;2.00;;;;;;;;;;5230089;56;1141170;-68
2022/07/14 09:26:46;;;;;;;7.60;2.02;;;;;;;22.14;51.68;100690.20;5224425;56;820057;-68
2022/07/14 09:31:52;;;;;;;4.10;1.70;;;;;;;22.13;54.03;100669.17;5219043;56;1136995;-69
2022/07/14 09:37:21;;;;;;;8.78;1.20;;;;;;;22.25;51.41;100670.33;5148948;56;1139036;-69
2022/07/14 09:42:50;;;;;;;3.60;1.47;;;;;;;22.33;52.62;100663.97;5137186;56;1139205;-69
2022/07/14 09:48:14;;;;;;;6.53;1.37;;;;;;;22.31;51.75;100661.46;5218501;55;1139117;-67
2022/07/14 09:53:32;;;;;;;5.47;2.08;;;;;;;22.67;52.00;100667.30;5176009;56;1139064;-69
2022/07/14 09:58:55;;;;;;;6.92;2.08;;;;;;;22.91;52.82;100661.55;5133270;56;1139055;-68
2022/07/14 10:04:00;;;;;;;4.33;1.75;;;;;;;23.11;50.61;100655.75;5146551;56;1137093;-69
2022/07/14 10:09:09;;;;;;;5.75;2.45;;;;;;;23.20;49.47;100655.62;5076575;57;1137085;-69
2022/07/14 10:14:16;;;;;;;11.12;1.92;;;;;;;23.17;49.23;100652.80;5115591;57;1136998;-69
2022/07/14 10:19:23;;;;;;;8.83;1.37;;;;;;;23.24;50.86;100654.17;5115203;56;1138998;-68
2022/07/14 10:24:30;;;;;;;6.88;1.34;;;;;;;23.30;48.38;100639.38;5150140;57;1137043;-69
2022/07/14 10:29:35;;;;;;;7.42;1.80;;;;;;;23.37;46.44;100645.66;5149897;56;1136983;-69
2022/07/14 10:34:48;;;;;;;5.65;1.50;;;;;;;23.50;47.64;100641.68;5149784;56;1136957;-68
2022/07/14 10:43:04;;;;;;;2.10;1.25;;;;;;;23.84;45.82;100638.61;5329043;54;46817;-67
2022/07/14 10:48:15;;;;;;;3.58;1.00;;;;;;;24.02;43.28;100635.34;5029415;57;1134904;-67
2022/07/14 10:53:21;;;;;;;10.80;2.00;;;;;;;23.90;41.80;100640.52;5023618;57;1139041;-66
2022/07/14 10:58:28;;;;;;;2.85;1.00;;;;;;;23.89;42.82;100628.03;5030355;57;1141123;-66
2022/07/14 11:03:46;;;;;;;14.20;1.37;;;;;;;24.14;43.21;100613.44;4989669;59;1139062;-67
2022/07/14 11:09:25;;;;;;;7.97;1.40;;;;;;;24.32;42.43;100617.77;4992428;58;1141150;-67
2022/07/14 11:14:36;;;;;;;5.12;1.52;;;;;;;24.43;42.25;100614.99;5006954;57;1137008;-69
2022/07/14 11:19:42;;;;;;;10.65;1.80;;;;;;;24.34;40.89;100604.05;5110744;56;1136976;-68
2022/07/14 11:24:57;;;;;;;3.72;1.37;;;;;;;24.46;41.65;100603.22;5145053;56;1139282;-68
2022/07/14 11:30:28;;;;;;;0.80;0.80;;;;;;;24.76;42.19;100598.73;5102525;57;1137012;-68
2022/07/14 11:41:13;;;;;;;4.85;0.90;;;;;;;24.92;39.94;100592.05;4815536;59;1141368;-67
2022/07/14 11:46:21;;;;;;;4.97;1.20;;;;;;;25.06;39.17;100591.02;4903429;59;1139064;-68
2022/07/14 11:51:30;;;;;;;7.22;1.12;;;;;;;25.09;38.73;100590.08;4851224;59;1139178;-67
2022/07/14 11:56:36;;;;;;;5.75;1.37;;;;;;;25.29;39.04;100587.84;4873707;60;1139116;-69
2022/07/14 12:01:43;;;;;;;3.98;1.30;;;;;;;25.46;38.19;100588.52;4882421;59;1139070;-68
2022/07/14 12:06:50;;;;;;;4.05;1.15;;;;;;;25.49;36.78;100579.97;4872395;59;1138982;-69
2022/07/14 12:11:55;;;;;;;5.10;1.35;;;;;;;25.55;38.57;100579.61;4881721;60;1139153;-69
2022/07/14 12:17:01;;;;;;;5.00;0.78;;;;;;;25.83;37.90;100571.16;4976561;58;1139050;-69
2022/07/14 12:22:08;;;;;;;4.30;0.80;;;;;;;26.02;34.61;100562.08;4997105;57;1139009;-69
2022/07/14 12:27:13;;;;;;;7.80;1.00;;;;;;;26.00;33.75;100572.30;5052923;58;1139520;-69
2022/07/14 12:32:27;;;;;;;3.50;0.85;;;;;;;26.02;34.78;100568.02;5055590;57;1139095;-68
2022/07/14 12:37:34;;;;;;;3.65;1.25;;;;;;;26.17;34.19;100568.55;5107980;57;1138560;-68
2022/07/14 12:42:40;;;;;;;2.60;1.10;;;;;;;26.02;33.96;100563.96;5153194;56;1139402;-69
2022/07/14 12:47:52;;;;;;;5.97;0.80;;;;;;;26.12;33.94;100550.25;5173003;56;1139457;-69
2022/07/14 12:52:59;;;;;;;2.17;1.05;;;;;;;26.08;32.65;100551.73;4965856;59;1139023;-69
2022/07/14 12:58:10;;;;;;;0.95;0.50;;;;;;;26.22;33.36;100541.09;5145164;57;1139076;-68
2022/07/14 13:03:21;;;;;;;6.10;1.30;;;;;;;26.40;33.00;100537.64;5191309;56;1139184;-68
2022/07/14 13:08:38;;;;;;;1.27;1.07;;;;;;;26.45;32.14;100546.44;5212112;56;1139011;-68
2022/07/14 13:13:49;;;;;;;5.17;0.90;;;;;;;26.70;31.18;100547.80;5222302;55;1139036;-70
2022/07/14 13:19:09;;;;;;;;;;;;;;;26.56;31.13;100541.14;5199157;56;1139068;-69
2022/07/14 13:24:31;;;;;;;1.15;0.70;;;;;;;26.71;30.71;100534.01;5196636;57;976498;-69
2022/07/14 13:29:41;;;;;;;3.20;0.85;;;;;;;26.65;30.04;100531.34;5192131;57;1134880;-69
2022/07/14 13:34:47;;;;;;;4.10;1.20;;;;;;;26.54;29.35;100524.26;5188678;57;1137070;-69
2022/07/14 13:39:53;;;;;;;1.45;0.55;;;;;;;26.57;32.33;100517.03;5178614;56;1136952;-69
2022/07/14 13:44:58;;;;;;;2.85;1.02;;;;;;;26.63;29.42;100511.22;5241515;55;1136898;-69
2022/07/14 13:55:28;;;;;;;2.02;0.70;;;;;;;26.43;28.74;100528.23;5175245;56;1137118;-68
2022/07/14 14:00:34;;;;;;;2.45;0.50;;;;;;;26.30;29.05;100523.73;5228325;55;1137073;-68
2022/07/14 14:05:40;;;;;;;1.50;1.02;;;;;;;26.35;28.97;100512.23;5241991;55;1137038;-69
2022/07/14 14:10:45;;;;;;;4.87;0.60;;;;;;;26.44;29.46;100512.23;5242036;55;1136981;-70
2022/07/14 14:15:51;;;;;;;4.35;1.30;;;;;;;26.54;29.86;100499.02;5242104;55;1136980;-69
2022/07/14 14:21:01;;;;;;;7.20;1.42;;;;;;;26.78;30.57;100493.22;5242065;55;1136854;-68
2022/07/14 14:26:09;;;;;;;2.72;1.50;;;;;;;26.97;29.96;100494.92;5242457;55;1134844;-68
2022/07/14 14:31:14;;;;;;;3.72;0.62;;;;;;;26.99;29.60;100490.63;5241602;55;1171971;-70
2022/07/14 14:36:20;;;;;;;8.10;1.17;;;;;;;26.89;30.40;100491.94;5192189;55;1139251;-69
2022/07/14 14:41:26;;;;;;;6.60;0.87;;;;;;;26.86;29.82;100492.41;5154548;56;1139112;-74
2022/07/14 14:46:32;;;;;;;4.60;1.75;;;;;;;26.77;30.13;100487.48;5213160;56;1139223;-73
2022/07/14 14:51:37;;;;;;;4.87;0.78;;;;;;;26.74;30.55;100490.12;5176306;57;1139339;-69
2022/07/14 14:56:43;;;;;;;9.05;5.10;;;;;;;26.75;29.04;100480.09;5046715;58;1138987;-69
2022/07/14 15:01:49;;;;;;;2.58;1.25;;;;;;;26.83;29.57;100478.45;5098789;57;1139138;-68
2022/07/14 15:06:55;;;;;;;4.83;1.20;;;;;;;26.70;30.72;100482.16;5049962;58;1139110;-67
2022/07/14 15:12:01;;;;;;;7.25;1.17;;;;;;;26.68;31.23;100482.90;5102501;57;1139104;-69
2022/07/14 15:17:06;;;;;;;2.08;1.67;;;;;;;26.60;30.52;100480.47;5090496;58;1139089;-70
2022/07/14 15:22:15;;;;;;;2.98;0.93;;;;;;;26.44;30.28;100490.02;4958230;57;1139161;-68
2022/07/14 15:27:23;;;;;;;4.87;1.67;;;;;;;26.28;30.83;100486.48;4994052;58;1139150;-69
2022/07/14 15:32:28;;;;;;;3.67;2.00;;;;;;;26.13;31.02;100490.05;5019795;58;1139375;-69
2022/07/14 15:37:34;;;;;;;3.42;1.75;;;;;;;25.85;31.50;100477.77;4968061;58;1139018;-69
2022/07/14 15:42:39;;;;;;;3.65;3.20;;;;;;;25.72;31.35;100483.28;4963174;58;1139184;-68
2022/07/14 15:47:45;;;;;;;1.47;1.05;;;;;;;25.82;32.83;100466.53;4929220;59;1139526;-69
2022/07/14 15:52:51;;;;;;;13.22;1.20;;;;;;;25.95;31.73;100473.23;4908428;58;1139322;-67
2022/07/14 15:57:56;;;;;;;1.70;1.50;;;;;;;25.74;31.23;100467.64;5025304;58;1141155;-69
2022/07/14 16:03:02;;;;;;;2.17;1.75;;;;;;;25.52;32.51;100467.64;4998098;57;1139159;-68
2022/07/14 16:08:09;;;;;;;1.82;1.72;;;;;;;25.58;33.05;100459.48;5033736;57;1139084;-70
2022/07/14 16:13:15;;;;;;;4.28;2.00;;;;;;;25.85;33.72;100457.97;4979498;57;1138913;-69
2022/07/14 16:18:21;;;;;;;3.83;2.33;;;;;;;26.03;33.45;100458.03;4980512;57;1139015;-69
2022/07/14 16:23:27;;;;;;;6.25;1.80;;;;;;;25.88;31.83;100443.98;4973219;58;1139159;-69
2022/07/14 16:28:33;;;;;;;5.55;1.57;;;;;;;25.88;31.83;100443.98;4973823;58;1139099;-68
2022/07/14 16:33:40;;;;;;;4.47;2.33;;;;;;;25.53;32.15;100440.34;5045542;57;1139109;-68
2022/07/14 16:38:46;;;;;;;3.20;2.05;;;;;;;25.38;33.48;100432.22;5045789;58;1139164;-68
2022/07/14 16:43:51;;;;;;;4.40;2.60;;;;;;;25.27;32.68;100425.62;5073377;57;1139033;-68
2022/07/14 16:48:57;;;;;;;7.28;2.85;;;;;;;24.97;33.23;100424.53;5137188;56;1139169;-69
2022/07/14 16:54:05;;;;;;;2.52;2.00;;;;;;;24.80;33.71;100412.80;5122027;57;1139176;-69
2022/07/14 16:59:10;;;;;;;6.30;2.77;;;;;;;24.71;33.99;100398.39;5129021;56;1139307;-69
2022/07/14 17:04:16;;;;;;;11.65;3.40;;;;;;;24.57;34.33;100402.19;5122656;57;1139018;-69
2022/07/14 17:09:22;;;;;;;4.60;3.65;;;;;;;24.50;34.88;100396.27;5128096;56;1141399;-68
2022/07/14 17:14:28;;;;;;;10.03;3.30;;;;;;;24.41;35.10;100382.69;5116373;57;1139010;-68
2022/07/14 17:19:34;;;;;;;5.90;2.42;;;;;;;24.30;35.31;100381.97;5118347;57;1141386;-68
2022/07/14 17:24:40;;;;;;;4.03;1.77;;;;;;;24.13;36.01;100383.45;5108108;57;1139001;-69
2022/07/14 17:29:46;;;;;;;3.05;1.42;;;;;;;24.01;36.68;100395.91;5103329;57;1139176;-70
2022/07/14 17:34:53;;;;;;;3.05;1.27;;;;;;;23.98;36.90;100384.20;5117429;57;1138961;-69
2022/07/14 17:39:58;;;;;;;7.28;1.20;;;;;;;23.83;37.36;100385.22;5125880;56;1139039;-68
2022/07/14 17:45:05;;;;;;;1.90;1.07;;;;;;;23.62;37.37;100386.80;5122882;56;1139065;-68
2022/07/14 17:50:11;;;;;;;2.90;0.90;;;;;;;23.60;37.90;100385.34;5110994;57;1138993;-68
2022/07/14 17:55:17;;;;;;;4.03;0.90;;;;;;;23.53;38.03;100390.72;5119862;57;1136931;-68
2022/07/14 18:00:22;;;;;;;4.03;0.93;;;;;;;23.52;38.44;100388.25;5123888;56;1137018;-68
2022/07/14 18:05:30;;;;;;;3.60;1.05;;;;;;;23.53;38.56;100389.92;5117410;57;1136990;-68
2022/07/14 18:10:35;;;;;;;9.10;1.98;;;;;;;23.48;38.80;100386.45;5107354;56;1136987;-68
2022/07/14 18:15:42;;;;;;;5.05;1.30;;;;;;;23.34;38.87;100372.11;5115879;57;1137137;-68
2022/07/14 18:20:48;;;;;;;1.87;1.05;;;;;;;23.25;39.23;100372.48;5121806;57;1137044;-68
2022/07/14 18:25:54;;;;;;;2.67;1.15;;;;;;;23.19;39.08;100382.25;5121796;57;1137147;-68
2022/07/14 18:31:00;;;;;;;34.35;2.83;;;;;;;23.04;39.64;100385.13;5124666;56;1136932;-69
2022/07/14 18:36:06;;;;;;;5.80;1.80;;;;;;;22.98;39.83;100389.13;5149031;56;1139250;-68
2022/07/14 18:41:12;;;;;;;2.92;1.45;;;;;;;22.88;40.05;100388.70;5156122;56;1136918;-68
2022/07/14 18:46:17;;;;;;;16.85;3.85;;;;;;;22.83;40.50;100396.03;5124429;56;1136977;-67
2022/07/14 18:51:26;;;;;;;2.90;1.17;;;;;;;22.73;41.68;100401.78;5154327;56;1139052;-68
2022/07/14 18:56:32;;;;;;;4.40;1.65;;;;;;;22.75;41.49;100414.55;5163454;56;1137046;-68
2022/07/14 19:01:38;;;;;;;1.62;1.00;;;;;;;22.63;42.08;100426.08;5155480;56;1137187;-67
2022/07/14 19:06:44;;;;;;;4.55;1.40;;;;;;;22.63;42.28;100422.86;5139296;56;1137043;-67
2022/07/14 19:11:49;;;;;;;3.37;1.32;;;;;;;22.60;42.44;100412.51;5111705;56;1136931;-68
2022/07/14 19:16:55;;;;;;;3.70;0.98;;;;;;;22.52;42.10;100427.99;5118757;57;1137207;-68
2022/07/14 19:22:00;;;;;;;5.05;1.82;;;;;;;22.50;42.21;100424.14;5114999;57;1137191;-68
2022/07/14 19:27:06;;;;;;;2.98;1.27;;;;;;;22.50;42.44;100432.23;5080155;57;1134882;-69
2022/07/14 19:32:12;;;;;;;2.50;1.17;;;;;;;22.51;42.55;100432.55;5079456;57;1135066;-68
2022/07/14 19:37:18;;;;;;;7.00;2.30;;;;;;;22.49;42.61;100436.47;5130822;57;1139157;-70
2022/07/14 19:42:24;;;;;;;1.77;1.13;;;;;;;22.54;42.81;100435.38;5034606;58;1139087;-68
2022/07/14 19:47:30;;;;;;;2.43;1.10;;;;;;;22.59;42.70;100436.97;4956847;59;1139027;-69
2022/07/14 19:52:36;;;;;;;3.70;1.27;;;;;;;22.60;42.90;100443.51;5041546;57;1139096;-67
2022/07/14 19:57:42;;;;;;;2.80;1.20;;;;;;;22.57;43.43;100440.37;5010980;58;1139113;-67
2022/07/14 20:02:48;;;;;;;4.20;2.72;;;;;;;22.45;43.99;100446.33;5039019;57;1139044;-68
2022/07/14 20:07:53;;;;;;;5.83;3.15;;;;;;;22.19;43.69;100445.29;5080039;57;1139006;-67
2022/07/14 20:12:59;;;;;;;5.17;3.40;;;;;;;21.86;44.05;100447.17;5072139;57;1139082;-66
2022/07/14 20:18:05;;;;;;;5.86;2.60;;;;;;;21.66;44.55;100445.67;5031156;58;1139062;-67
2022/07/14 20:23:13;;;;;;;10.43;3.37;;;;;;;21.47;44.52;100451.67;5079173;57;1139178;-67
2022/07/14 20:33:41;;;;;;;6.30;3.05;;;;;;;20.99;45.76;100457.19;5037159;58;1141150;-66
2022/07/14 20:38:47;;;;;;;7.20;2.92;;;;;;;20.74;46.03;100462.56;4972122;58;1139105;-67
2022/07/14 20:43:53;;;;;;;6.03;3.35;;;;;;;20.60;46.81;100462.38;5055113;57;1139079;-67
2022/07/14 20:48:58;;;;;;;13.70;6.42;;;;;;;20.47;47.45;100467.54;4981923;59;1139112;-68
2022/07/14 20:54:04;;;;;;;19.37;7.67;;;;;;;20.42;47.80;100464.59;5198234;56;1141184;-68
2022/07/14 20:59:11;;;;;;;22.48;10.50;;;;;;;20.33;47.84;100473.70;5220068;56;1141125;-68
2022/07/14 21:04:17;;;;;;;7.58;3.80;;;;;;;19.99;47.73;100472.36;5221488;56;1143197;-67
2022/07/14 21:09:23;;;;;;;8.30;3.20;;;;;;;19.76;48.63;100476.06;5205152;56;1138972;-66
2022/07/14 21:14:29;;;;;;;37.60;18.82;;;;;;;19.69;49.54;100479.15;5220882;55;1139066;-67
2022/07/14 21:19:34;;;;;;;33.45;14.75;;;;;;;19.76;50.01;100471.53;5196150;55;1143507;-67
2022/07/14 21:24:40;;;;;;;31.12;15.05;;;;;;;19.69;50.34;100479.98;5169255;56;1143424;-67
2022/07/14 21:29:47;;;;;;;30.05;14.58;;;;;;;19.76;51.24;100474.22;5132929;57;1143193;-66
2022/07/14 21:34:55;;;;;;;20.37;10.28;;;;;;;19.85;51.71;100466.95;5130825;57;1143576;-68
2022/07/14 21:40:00;;;;;;;14.85;4.50;;;;;;;19.89;51.89;100472.27;5133380;56;1143193;-67
2022/07/14 21:45:07;;;;;;;9.03;4.30;;;;;;;19.94;52.19;100468.03;5178815;56;1141130;-67
2022/07/14 21:50:13;;;;;;;10.28;5.00;;;;;;;19.98;52.43;100469.34;5178785;56;1139073;-66
2022/07/14 21:55:20;;;;;;;14.85;9.63;;;;;;;19.95;52.55;100470.21;5152345;57;1141128;-68
2022/07/14 22:00:31;;;;;;;5.85;3.33;;;;;;;19.69;52.71;100471.09;5171681;57;1141020;-67
2022/07/14 22:05:37;;;;;;;6.17;2.45;;;;;;;19.30;53.35;100470.13;5195077;57;1138917;-67
2022/07/14 22:10:44;;;;;;;4.22;1.90;;;;;;;19.13;54.14;100481.95;5194936;57;1139071;-66
2022/07/14 22:15:50;;;;;;;3.67;1.72;;;;;;;18.81;54.45;100483.42;5193712;57;1139083;-67
2022/07/14 22:20:56;;;;;;;4.33;2.10;;;;;;;18.52;55.18;100483.48;5047801;57;1139066;-67
2022/07/14 22:26:06;;;;;;;10.82;2.08;;;;;;;18.37;55.95;100487.03;5045819;57;1139103;-66
2022/07/14 22:31:12;;;;;;;9.03;2.45;;;;;;;18.32;56.88;100485.39;5084330;57;1140482;-67
2022/07/14 22:36:18;;;;;;;9.15;3.22;;;;;;;18.10;56.99;100489.58;5071897;57;1137282;-66
2022/07/14 22:41:24;;;;;;;9.90;4.30;;;;;;;17.78;57.64;100494.42;5037598;58;1137236;-67
2022/07/14 22:46:29;;;;;;;6.87;2.55;;;;;;;17.52;58.42;100487.34;5171048;57;1136954;-68
2022/07/14 22:51:36;;;;;;;2.98;2.00;;;;;;;17.58;59.49;100487.17;5194673;56;1136924;-66
2022/07/14 22:56:45;;;;;;;9.88;2.80;;;;;;;17.64;59.62;100495.08;5160647;56;1137036;-69
2022/07/14 23:01:49;;;;;;;3.47;2.25;;;;;;;17.31;59.97;100503.49;5067947;57;1136887;-67
2022/07/14 23:06:55;;;;;;;15.40;3.33;;;;;;;17.07;60.81;100505.59;5045974;57;1136959;-68
2022/07/14 23:17:24;;;;;;;8.53;3.33;;;;;;;16.92;62.65;100496.02;5167340;57;1137101;-69
2022/07/14 23:22:29;;;;;;;12.97;2.90;;;;;;;17.02;63.40;100499.39;5052638;58;1136975;-68
2022/07/14 23:27:36;;;;;;;10.10;2.73;;;;;;;17.09;63.78;100504.94;5133682;57;1139151;-69
2022/07/14 23:32:42;;;;;;;4.57;2.40;;;;;;;17.06;64.24;100501.25;5142099;56;1139030;-69
2022/07/14 23:37:49;;;;;;;4.23;2.13;;;;;;;17.18;64.94;100492.77;5142009;56;1136971;-69
2022/07/14 23:42:54;;;;;;;8.03;2.63;;;;;;;17.28;64.74;100492.62;5142072;56;1136931;-69
2022/07/14 23:48:00;;;;;;;3.77;1.70;;;;;;;17.50;64.76;100494.69;5149474;57;1134816;-68
2022/07/14 23:53:06;;;;;;;5.07;2.10;;;;;;;17.49;64.48;100493.02;5195591;57;1134822;-69
2022/07/14 23:58:12;;;;;;;2.93;1.93;;;;;;;17.47;64.26;100484.31;5145652;56;1139023;-68
